Item Display Status Serial CT Sensor

Mooring Depth: 1 m

 

Deployed Sensor

  • Serial Number: 12490
  • NDBC Property Number: 38948
  • Start Date: 12/6/2018 (16:32:05 Z)
  • End Date: Currently Active
Water Temperature [°C]     6 entries per hour
Showing data from 2/5/2020 (05:30:00 Z) to 2/4/2020 (00:00:01 Z)
Previous Next [ Day | 3-Days | 7-Days ]
First Last
Prev [ Day | 3-Days | 7-Days ] Next
First Last

Start Time:     :
End Time:     :     
Time (in GMT) :00 :50 :40 :30 :20 :10
Previous Next [ Day | 3-Days | 7-Days ]
First Last
Prev [ Day | 3-Days | 7-Days ] Next
First Last


123 => good data
MM => data is determined as missing
-- => data not received/configured
Back to Top Back to Top
2/5/2020 06:00 to 5:10 -- -- -- 25.648 25.650 25.649
2/5/2020 05:00 to 4:10 25.657 25.651 25.658 25.657 25.664 25.668
2/5/2020 04:00 to 3:10 25.670 25.670 25.674 25.675 25.679 25.677
2/5/2020 03:00 to 2:10 25.677 25.675 25.689 25.682 25.682 25.681
2/5/2020 02:00 to 1:10 25.682 25.678 25.690 25.686 25.681 25.689
2/5/2020 01:00 to 0:10 25.697 25.679 25.697 25.695 25.694 25.701
2/5/2020 00:00 to 23:10 -- 25.699 25.706 25.698 25.706 25.708
2/4/2020 23:00 to 22:10 25.722 25.710 25.714 25.724 25.721 25.730
2/4/2020 22:00 to 21:10 25.729 25.728 25.729 25.720 25.732 25.726
2/4/2020 21:00 to 20:10 25.731 25.691 25.712 25.719 25.716 25.714
2/4/2020 20:00 to 19:10 25.692 25.706 25.692 25.684 25.676 25.670
2/4/2020 19:00 to 18:10 25.664 25.656 -- 25.646 25.645 25.651
2/4/2020 18:00 to 17:10 25.640 25.644 25.640 25.637 25.628 25.620
2/4/2020 17:00 to 16:10 25.618 25.615 25.623 25.626 25.622 25.625
2/4/2020 16:00 to 15:10 -- -- 25.627 25.631 25.624 25.625
2/4/2020 15:00 to 14:10 25.627 25.611 25.617 25.624 25.627 25.625
2/4/2020 14:00 to 13:10 25.634 25.633 25.628 25.630 25.638 25.638
2/4/2020 13:00 to 12:10 25.635 25.635 25.638 25.639 25.646 25.643
2/4/2020 12:00 to 11:10 25.653 25.646 25.650 25.643 25.651 25.641
2/4/2020 11:00 to 10:10 25.656 25.650 25.653 25.650 25.662 25.650
2/4/2020 10:00 to 9:10 25.652 25.654 25.657 25.648 25.654 25.656
2/4/2020 09:00 to 8:10 25.652 25.645 25.653 25.648 25.654 25.657
2/4/2020 08:00 to 7:10 25.652 25.652 25.650 25.651 25.663 25.652
2/4/2020 07:00 to 6:10 25.661 25.670 25.673 25.680 25.668 25.672
2/4/2020 06:00 to 5:10 25.669 25.672 25.682 25.679 25.692 25.689
2/4/2020 05:00 to 4:10 25.690 25.700 25.698 25.704 25.711 25.709
2/4/2020 04:00 to 3:10 25.708 25.719 25.723 25.733 25.739 25.742
2/4/2020 03:00 to 2:10 25.753 25.761 25.760 25.772 25.782 25.778
2/4/2020 02:00 to 1:10 25.778 25.787 25.796 25.800 25.812 25.818
2/4/2020 01:00 to 0:10 25.829 25.832 25.855 25.855 25.866 25.856

 

 

 

Conductivity [S/m]     6 entries per hour
Showing data from 2/5/2020 (05:30:00 Z) to 2/4/2020 (00:00:01 Z)
Previous Next [ Day | 3-Days | 7-Days ]
First Last
Prev [ Day | 3-Days | 7-Days ] Next
First Last

Start Time:     :
End Time:     :     
Time (in GMT) :00 :50 :40 :30 :20 :10
Previous Next [ Day | 3-Days | 7-Days ]
First Last
Prev [ Day | 3-Days | 7-Days ] Next
First Last


123 => good data
MM => data is determined as missing
-- => data not received/configured
Back to Top Back to Top
2/5/2020 06:00 to 5:10 -- -- -- 5.42126 5.42156 5.42129
2/5/2020 05:00 to 4:10 5.42207 5.42180 5.42244 5.42258 5.42316 5.42351
2/5/2020 04:00 to 3:10 5.42375 5.42385 5.42413 5.42468 5.42482 5.42484
2/5/2020 03:00 to 2:10 5.42532 5.42498 5.42567 5.42516 5.42530 5.42523
2/5/2020 02:00 to 1:10 5.42534 5.42471 5.42586 5.42528 5.42458 5.42596
2/5/2020 01:00 to 0:10 5.42621 5.42500 5.42662 5.42637 5.42595 5.42697
2/5/2020 00:00 to 23:10 5.42672 5.42666 5.42759 5.42665 5.42796 5.42748
2/4/2020 23:00 to 22:10 5.42898 5.42826 5.42837 5.42927 5.42950 5.43034
2/4/2020 22:00 to 21:10 5.43023 5.43003 5.42992 5.42938 5.42998 5.42975
2/4/2020 21:00 to 20:10 5.43020 5.42634 5.42853 5.42906 5.42851 5.42846
2/4/2020 20:00 to 19:10 5.42604 5.42777 5.42653 5.42530 5.42442 5.42384
2/4/2020 19:00 to 18:10 5.42304 5.42216 5.42124 5.42095 5.42151 5.42190
2/4/2020 18:00 to 17:10 5.42083 5.42136 5.42043 5.42004 5.41990 5.41838
2/4/2020 17:00 to 16:10 5.41862 5.41810 5.41886 5.41914 5.41903 5.41894
2/4/2020 16:00 to 15:10 5.41924 5.41894 5.41940 5.41973 5.41899 5.41904
2/4/2020 15:00 to 14:10 5.41932 5.41790 5.41845 5.41910 5.41934 5.41866
2/4/2020 14:00 to 13:10 5.41989 5.41966 5.41976 5.41950 5.41969 5.42012
2/4/2020 13:00 to 12:10 5.41982 5.42014 5.42005 5.42032 5.42083 5.42060
2/4/2020 12:00 to 11:10 5.42133 5.42080 5.42140 5.42062 5.42136 5.42018
2/4/2020 11:00 to 10:10 5.42162 5.42136 5.42154 5.42092 5.42202 5.42132
2/4/2020 10:00 to 9:10 5.42074 5.42121 5.42149 5.42048 5.42100 5.42147
2/4/2020 09:00 to 8:10 5.42097 5.42038 5.42080 5.42073 5.42101 5.42092
2/4/2020 08:00 to 7:10 5.42089 5.42046 5.42038 5.42030 5.42134 5.42039
2/4/2020 07:00 to 6:10 5.42126 5.42209 5.42208 5.42310 5.42169 5.42231
2/4/2020 06:00 to 5:10 5.42214 5.42247 5.42285 5.42292 5.42426 5.42373
2/4/2020 05:00 to 4:10 5.42426 5.42490 5.42482 5.42565 5.42621 5.42622
2/4/2020 04:00 to 3:10 5.42635 5.42743 5.42802 5.42905 5.42964 5.42990
2/4/2020 03:00 to 2:10 5.43096 5.43181 5.43182 5.43316 5.43437 5.43400
2/4/2020 02:00 to 1:10 5.43400 5.43477 5.43606 5.43704 5.43812 5.43862
2/4/2020 01:00 to 0:10 5.43961 5.43978 5.44261 5.44249 5.44356 5.44288

 

 

 

Salinity [psu]     6 entries per hour
Showing data from 2/5/2020 (05:30:00 Z) to 2/4/2020 (00:00:01 Z)
Previous Next [ Day | 3-Days | 7-Days ]
First Last
Prev [ Day | 3-Days | 7-Days ] Next
First Last

Start Time:     :
End Time:     :     
Time (in GMT) :00 :50 :40 :30 :20 :10
Previous Next [ Day | 3-Days | 7-Days ]
First Last
Prev [ Day | 3-Days | 7-Days ] Next
First Last


123 => good data
MM => data is determined as missing
-- => data not received/configured
Back to Top Back to Top
2/5/2020 06:00 to 5:10 -- -- -- 35.34 35.34 35.34
2/5/2020 05:00 to 4:10 35.34 35.34 35.34 35.34 35.34 35.34
2/5/2020 04:00 to 3:10 35.34 35.34 35.34 35.34 35.34 35.34
2/5/2020 03:00 to 2:10 35.35 35.35 35.34 35.34 35.34 35.34
2/5/2020 02:00 to 1:10 35.34 35.34 35.34 35.34 35.34 35.34
2/5/2020 01:00 to 0:10 35.34 35.34 35.34 35.34 35.34 35.34
2/5/2020 00:00 to 23:10 -- 35.34 35.34 35.34 35.34 35.34
2/4/2020 23:00 to 22:10 35.34 35.34 35.34 35.34 35.34 35.34
2/4/2020 22:00 to 21:10 35.34 35.34 35.34 35.34 35.34 35.34
2/4/2020 21:00 to 20:10 35.34 35.34 35.34 35.34 35.34 35.34
2/4/2020 20:00 to 19:10 35.34 35.34 35.34 35.34 35.34 35.34
2/4/2020 19:00 to 18:10 35.34 35.34 -- 35.34 35.34 35.34
2/4/2020 18:00 to 17:10 35.34 35.34 35.34 35.34 35.34 35.34
2/4/2020 17:00 to 16:10 35.34 35.34 35.34 35.34 35.34 35.34
2/4/2020 16:00 to 15:10 -- -- 35.34 35.34 35.34 35.34
2/4/2020 15:00 to 14:10 35.34 35.34 35.34 35.34 35.34 35.34
2/4/2020 14:00 to 13:10 35.34 35.34 35.34 35.34 35.34 35.34
2/4/2020 13:00 to 12:10 35.34 35.34 35.34 35.34 35.34 35.34
2/4/2020 12:00 to 11:10 35.34 35.34 35.34 35.34 35.34 35.34
2/4/2020 11:00 to 10:10 35.34 35.34 35.34 35.34 35.33 35.34
2/4/2020 10:00 to 9:10 35.33 35.33 35.33 35.33 35.33 35.34
2/4/2020 09:00 to 8:10 35.33 35.34 35.33 35.34 35.33 35.33
2/4/2020 08:00 to 7:10 35.33 35.33 35.33 35.33 35.33 35.33
2/4/2020 07:00 to 6:10 35.33 35.33 35.33 35.33 35.33 35.33
2/4/2020 06:00 to 5:10 35.33 35.33 35.33 35.33 35.33 35.33
2/4/2020 05:00 to 4:10 35.33 35.33 35.33 35.33 35.33 35.33
2/4/2020 04:00 to 3:10 35.33 35.33 35.33 35.33 35.33 35.33
2/4/2020 03:00 to 2:10 35.33 35.33 35.33 35.33 35.33 35.33
2/4/2020 02:00 to 1:10 35.33 35.33 35.33 35.34 35.34 35.34
2/4/2020 01:00 to 0:10 35.33 35.33 35.34 35.34 35.33 35.34